Aérodrome :
LOGIN :

S'inscrire | Disclaimer

   EN    FR    IT 

 










Légende :    VFR   VFR Marginal   IFR   IFR Intensif   IFR Très Intensif
Visi : 
Plafond : 
>= 8 km
>= 3000ft
5 à 8 km
1000 à 3000 ft
1500m à 5 km
500 à 1000 ft
800 à 1500m
200 à 500 ft
< 800m
< 200 ft
Symboles :   Orages  Brouillard  Fortes neiges  Fortes précipitations  Vent > 20 kt
SIGMETs :   Divers  Orages  Givrage  Turbulence  Onde Orograph.  Cendres Volcan.






- Altitude de l'aérodrome : 357 ft
- Code IATA : TUF


LFOT - Tours

DERNIER METAR :
  • 190100Z AUTO 23004KT 9999 -RA ///TCU 15/14 Q1014 TEMPO 4000 RA BKN006 BKN040CB

METARs EXPIRÉS :
  • 190030Z AUTO 26006KT 9999 -RA ///CB 15/13 Q1014 TEMPO 4000 RA BKN006 BKN040CB
  • 190000Z AUTO 27004KT 9999 -RA ///TCU 15/14 Q1014 TEMPO 4000 RA BKN006 BKN040CB
  • 182330Z AUTO 28006KT 9999 -RA ///TCU 15/14 Q1014 TEMPO 4000 RA BKN006 BKN040CB
  • 182300Z AUTO 26007KT 9999 -RA ///TCU 16/14 Q1014 TEMPO 4000 RA BKN006 BKN040TCU
  • 182230Z AUTO 24007KT 9999 RA SCT036/// BKN052/// BKN070/// ///CB 16/15 Q1014 TEMPO 4000 RA BKN006 BKN040TCU

TAF TAF LFOT
Valide du 19 à 00h jusqu'au 20 à 00h UTC


182300Z 1900/1924 23005KT 9999 BKN040
TEMPO 1900/1911 4000 RA BKN006 BKN040CB
BECMG 1911/1913 SCT030
TEMPO 1922/1924 4000 -SHRA BKN014 BKN030TCU



MET'MAP, la Météo Aéronautique d'un coup d'oeil ! - Copyright ORBIFLY Décembre 2007 - Disclaimer

ORBIFLY MET'MAP TEAM :

Programmation & Développement : Alexandra Zaïnal
Sur une idée originale de : Baudouin d'Aumeries
Assistance à la programmation : Marc-Olivier Méhu
Soutien technique & logistique : Manuel Goepfert

Contact : metmap@orbifly.com




SOURCES & CREDITS :

   NOAA